This is the latest recevied weather packets stored in our database for station/object AA7F. If no packets are shown the sender has not sent any weather packets the latest 1 day(s).
| Time | Temp. | Humidity | Pressure | Rain* | Wind** | Luminosity | Snow |
|---|---|---|---|---|---|---|---|
| 1778029227 | 24.44° C | 30% | 1008.4 hPa | 0 mm | - | 182 W/m² | - |
| 1778028924 | 24.44° C | 30% | 1008.4 hPa | 0 mm | - | 201 W/m² | - |
| 1778028620 | 24.44° C | 31% | 1008.3 hPa | 0 mm | - | 67 W/m² | - |
| 1778028014 | 24.44° C | 30% | 1008.5 hPa | 0 mm | - | 241 W/m² | - |
| 1778027103 | 25° C | 30% | 1008.2 hPa | 0 mm | - | 287 W/m² | - |
| 1778026495 | 25° C | 30% | 1008.5 hPa | 0 mm | - | 322 W/m² | - |
| 1778025890 | 25° C | 28% | 1008.3 hPa | 0 mm | - | 321 W/m² | - |
| 1778020438 | 24.44° C | 35% | 1008.7 hPa | 0 mm | - | 595 W/m² | - |
| 1778020134 | 24.44° C | 37% | 1009.1 hPa | 0 mm | - | 614 W/m² | - |
| 1778018618 | 22.78° C | 44% | 1009.4 hPa | 0 mm | - | 102 W/m² | - |
| 1778018316 | 23.33° C | 45% | 1009.5 hPa | 0 mm | - | 114 W/m² | - |
| 1778018014 | 22.78° C | 40% | 1009.6 hPa | 0 mm | - | 152 W/m² | - |
| 1778016804 | 24.44° C | 39% | 1009.6 hPa | 0 mm | - | 139 W/m² | - |
| 1778014984 | 25° C | 37% | 1010 hPa | 0 mm | - | 168 W/m² | - |
| 1778013167 | 23.33° C | 38% | 1010.1 hPa | 0 mm | - | 226 W/m² | - |
| 1778012863 | 22.78° C | 40% | 1010 hPa | 0 mm | - | 219 W/m² | - |
| 1778010742 | 23.89° C | 42% | 1010.2 hPa | 0 mm | - | 713 W/m² | - |
| 1778010135 | 23.89° C | 35% | 1010.1 hPa | 0 mm | - | 716 W/m² | - |
| 1778009831 | 23.89° C | 38% | 1010.4 hPa | 0 mm | - | 723 W/m² | - |
| 1778006503 | 22.78° C | 44% | 1010.9 hPa | 0 mm | - | 786 W/m² | - |
| 1778006200 | 22.78° C | 40% | 1010.8 hPa | 0 mm | - | 792 W/m² | - |
| 1778004987 | 22.78° C | 39% | 1010.9 hPa | 0 mm | - | 817 W/m² | - |
| 1778002863 | 21.67° C | 46% | 1011 hPa | 0 mm | - | 837 W/m² | - |
| 1778001043 | 20.56° C | 48% | 1011.2 hPa | 0 mm | - | 779 W/m² | - |
* Rain latest hour (hover to see other rain measurements)
** Current wind speed in m/s (hover to see current wind gust speed)